Time;durP1;ratioP1;P1;durP2;ratioP2;P2;SDS_P1;SDS_P2;PMS_P1;PMS_P2;Temp;Humidity;BMP_temperature;BMP_pressure;BME280_temperature;BME280_humidity;BME280_pressure;Samples;Min_cycle;Max_cycle;Signal;HPM_P1;HPM_P2
2022/06/04 00:02:05;;;;;;;15.57;10.25;;;;;;;13.91;96.79;97356.13;5059142;28;20099;-66
2022/06/04 00:04:31;;;;;;;16.13;11.00;;;;;;;13.92;97.00;97352.31;5067536;28;20102;-66
2022/06/04 00:06:58;;;;;;;15.25;10.70;;;;;;;13.91;97.24;97347.97;5065215;28;20044;-66
2022/06/04 00:09:25;;;;;;;12.80;10.43;;;;;;;13.87;96.92;97346.88;5063412;28;20040;-66
2022/06/04 00:17:24;;;;;;;15.93;10.23;;;;;;;13.88;97.15;97362.94;5063018;28;20527;-65
2022/06/04 00:19:51;;;;;;;12.52;10.45;;;;;;;13.73;97.51;97363.75;5065751;28;20041;-66
2022/06/04 00:22:18;;;;;;;13.27;11.32;;;;;;;13.65;97.86;97356.94;5065367;28;20052;-66
2022/06/04 00:24:45;;;;;;;13.85;10.98;;;;;;;13.66;98.11;97363.22;5066579;28;20036;-65
2022/06/04 00:27:15;;;;;;;13.38;10.63;;;;;;;13.68;98.48;97374.66;5064973;28;20041;-66
2022/06/04 00:29:41;;;;;;;15.80;11.57;;;;;;;13.59;98.62;97370.81;5066197;28;20495;-65
2022/06/04 00:32:09;;;;;;;16.83;12.13;;;;;;;13.57;98.92;97367.56;5063913;28;20045;-66
2022/06/04 00:34:35;;;;;;;16.45;13.02;;;;;;;13.54;98.75;97360.78;5065372;28;20044;-65
2022/06/04 00:37:02;;;;;;;15.18;12.25;;;;;;;13.46;98.98;97351.22;5065851;28;20041;-66
2022/06/04 00:39:29;;;;;;;16.27;13.40;;;;;;;13.49;99.85;97353.41;5065793;28;20037;-65
2022/06/04 00:42:09;;;;;;;14.52;12.40;;;;;;;13.57;99.74;97345.81;5066407;28;20577;-66
2022/06/04 00:45:14;;;;;;;14.57;11.85;;;;;;;13.49;99.52;97347.16;5061082;28;20048;-65
2022/06/04 00:47:41;;;;;;;13.77;11.52;;;;;;;13.32;98.21;97356.38;5051391;28;20056;-66
2022/06/04 00:50:09;;;;;;;14.73;12.38;;;;;;;13.37;99.77;97360.97;5062686;28;20591;-65
2022/06/04 00:52:36;;;;;;;14.48;11.88;;;;;;;13.35;99.24;97358.53;5063747;28;20044;-66
2022/06/04 00:55:06;;;;;;;14.63;12.20;;;;;;;13.43;99.22;97353.66;5068818;28;20522;-66
2022/06/04 00:57:44;;;;;;;14.43;12.85;;;;;;;13.44;99.18;97349.84;5064217;28;20044;-65
2022/06/04 01:00:23;;;;;;;15.88;12.73;;;;;;;13.34;98.94;97347.94;5065928;28;20048;-66
2022/06/04 01:03:01;;;;;;;12.93;11.32;;;;;;;13.27;99.21;97338.13;5060549;28;20040;-66
2022/06/04 01:05:28;;;;;;;19.17;13.13;;;;;;;13.25;99.52;97350.38;5056834;28;20040;-65
2022/06/04 01:08:32;;;;;;;16.13;13.27;;;;;;;13.26;99.59;97346.56;5065584;28;20062;-66
2022/06/04 01:11:19;;;;;;;16.48;12.95;;;;;;;13.24;99.30;97348.75;5061063;28;20095;-66
2022/06/04 01:14:27;;;;;;;15.55;13.18;;;;;;;13.26;99.72;97352.81;5064155;28;20052;-66
2022/06/04 01:17:01;;;;;;;16.15;12.77;;;;;;;13.26;99.91;97362.88;5062565;28;20068;-66
2022/06/04 01:19:49;;;;;;;15.85;12.60;;;;;;;13.29;99.76;97356.91;5065805;28;20040;-65
2022/06/04 01:22:49;;;;;;;16.27;13.18;;;;;;;13.35;100.00;97358.53;5063557;28;20040;-65
2022/06/04 01:25:34;;;;;;;14.80;12.98;;;;;;;13.29;99.04;97350.63;5063245;28;20047;-66
2022/06/04 01:28:04;;;;;;;16.55;12.07;;;;;;;13.14;98.79;97349.53;5061666;28;20040;-65
2022/06/04 01:30:45;;;;;;;16.23;12.23;;;;;;;12.95;99.34;97341.91;5056152;28;20029;-66
2022/06/04 01:33:25;;;;;;;17.30;12.82;;;;;;;12.93;99.14;97333.19;5066757;28;20420;-66
2022/06/04 01:36:35;;;;;;;16.38;12.82;;;;;;;12.88;100.00;97339.44;5064658;28;20492;-66
2022/06/04 01:39:16;;;;;;;18.50;12.77;;;;;;;12.93;100.00;97354.13;5058062;28;20079;-65
2022/06/04 01:41:52;;;;;;;16.50;13.00;;;;;;;12.91;100.00;97348.13;5061525;28;20531;-65
2022/06/04 01:44:23;;;;;;;24.92;12.73;;;;;;;12.87;100.00;97362.25;5063100;28;20040;-66
2022/06/04 01:46:55;;;;;;;15.80;13.23;;;;;;;12.84;100.00;97364.69;5048045;28;20049;-65
2022/06/04 01:49:42;;;;;;;19.88;15.57;;;;;;;12.99;100.00;97364.75;5059849;28;20050;-65
2022/06/04 01:52:15;;;;;;;18.15;14.45;;;;;;;13.07;100.00;97363.41;5064900;28;20235;-66
2022/06/04 01:54:49;;;;;;;15.13;12.90;;;;;;;13.01;100.00;97364.44;5065914;28;20053;-66
2022/06/04 01:57:30;;;;;;;17.73;13.85;;;;;;;12.97;100.00;97356.03;5062302;28;20036;-65
2022/06/04 02:00:03;;;;;;;20.92;13.27;;;;;;;12.99;100.00;97362.03;5062743;28;20044;-66
2022/06/04 02:02:37;;;;;;;17.45;14.25;;;;;;;12.93;100.00;97365.00;5057856;28;20124;-66
2022/06/04 02:05:08;;;;;;;15.73;13.38;;;;;;;12.85;100.00;97363.59;5065206;28;20052;-65
2022/06/04 02:07:42;;;;;;;17.88;13.52;;;;;;;12.82;100.00;97367.66;5051742;28;20051;-65
2022/06/04 02:10:34;;;;;;;17.55;13.80;;;;;;;12.94;100.00;97372.84;5064189;28;20044;-65
2022/06/04 02:13:10;;;;;;;16.85;14.93;;;;;;;13.01;100.00;97372.59;5062304;28;20045;-66
2022/06/04 02:15:44;;;;;;;18.98;13.80;;;;;;;12.99;100.00;97366.63;5062713;28;20070;-66
2022/06/04 02:18:10;;;;;;;13.55;11.30;;;;;;;12.89;98.77;97364.69;5065018;28;20124;-66
2022/06/04 02:20:37;;;;;;;16.45;12.38;;;;;;;12.78;99.15;97357.63;5062507;28;20051;-66
2022/06/04 02:23:04;;;;;;;15.63;12.27;;;;;;;12.61;99.48;97351.28;5065168;28;20557;-65
2022/06/04 02:25:32;;;;;;;18.02;13.43;;;;;;;12.65;100.00;97345.34;5064615;28;20416;-66
2022/06/04 02:27:59;;;;;;;16.92;13.13;;;;;;;12.72;100.00;97338.56;5064658;28;20059;-66
2022/06/04 02:30:36;;;;;;;18.88;14.95;;;;;;;12.73;100.00;97348.38;5064966;28;20106;-66
2022/06/04 02:33:08;;;;;;;18.70;13.60;;;;;;;12.80;100.00;97350.00;5064598;28;20462;-66
2022/06/04 02:35:43;;;;;;;15.80;13.90;;;;;;;12.83;100.00;97344.84;5064384;28;20071;-66
2022/06/04 02:38:51;;;;;;;17.08;14.45;;;;;;;12.95;100.00;97343.78;5064182;28;20475;-66
2022/06/04 02:41:52;;;;;;;19.20;14.90;;;;;;;12.88;97.96;97333.19;5048372;28;20443;-66
2022/06/04 02:44:26;;;;;;;17.70;12.30;;;;;;;12.49;99.76;97328.97;5033140;28;20060;-66
2022/06/04 02:47:05;;;;;;;15.90;12.80;;;;;;;12.49;100.00;97326.25;5058011;28;20060;-66
2022/06/04 02:49:55;;;;;;;21.05;14.13;;;;;;;12.79;100.00;97332.88;5060548;28;20503;-65
2022/06/04 02:52:23;;;;;;;20.67;15.75;;;;;;;12.90;100.00;97332.91;5064240;28;20033;-66
2022/06/04 02:54:58;;;;;;;19.02;15.07;;;;;;;13.00;100.00;97327.50;5064528;28;20048;-66
2022/06/04 02:57:27;;;;;;;23.70;15.32;;;;;;;13.05;100.00;97319.34;5063093;28;20555;-66
2022/06/04 02:59:55;;;;;;;18.08;13.63;;;;;;;13.02;98.79;97322.63;5061271;28;20530;-66
2022/06/04 03:02:26;;;;;;;14.82;12.45;;;;;;;12.64;98.95;97311.13;5067813;28;20098;-66
2022/06/04 03:04:55;;;;;;;20.55;14.73;;;;;;;12.41;100.00;97313.19;5060395;28;20147;-66
2022/06/04 03:07:23;;;;;;;19.75;15.38;;;;;;;12.55;100.00;97317.06;5062983;28;20049;-66
2022/06/04 03:09:54;;;;;;;21.85;17.00;;;;;;;12.61;100.00;97315.97;5063130;28;20045;-66
2022/06/04 03:12:21;;;;;;;21.55;17.65;;;;;;;12.65;100.00;97320.88;5067265;28;20044;-66
2022/06/04 03:14:48;;;;;;;18.80;15.73;;;;;;;12.77;100.00;97318.75;5065540;28;20040;-66
2022/06/04 03:17:14;;;;;;;21.23;16.75;;;;;;;12.78;100.00;97320.38;5062181;28;20797;-66
2022/06/04 03:19:41;;;;;;;20.48;16.92;;;;;;;12.83;100.00;97322.31;5062522;28;20044;-66
2022/06/04 03:22:08;;;;;;;21.08;17.13;;;;;;;12.85;100.00;97331.81;5062625;28;20043;-66
2022/06/04 03:24:34;;;;;;;20.35;17.38;;;;;;;12.90;100.00;97328.28;5064164;28;20067;-66
2022/06/04 03:27:01;;;;;;;21.65;16.75;;;;;;;12.94;100.00;97325.88;5061813;28;20060;-66
2022/06/04 03:29:27;;;;;;;20.35;17.02;;;;;;;13.21;100.00;97330.25;5064863;28;20046;-66
2022/06/04 03:31:54;;;;;;;23.90;16.80;;;;;;;13.25;100.00;97328.63;5064211;28;20032;-66
2022/06/04 03:34:21;;;;;;;18.42;16.27;;;;;;;13.25;100.00;97334.06;5063866;28;20045;-66
2022/06/04 03:36:47;;;;;;;17.40;14.25;;;;;;;13.31;99.98;97335.72;5064763;28;20041;-66
2022/06/04 03:39:14;;;;;;;18.13;15.00;;;;;;;13.40;99.59;97344.13;5064379;28;20572;-66
2022/06/04 03:41:40;;;;;;;18.30;14.63;;;;;;;13.31;99.97;97360.19;5064173;28;20264;-66
2022/06/04 03:44:08;;;;;;;18.33;15.82;;;;;;;13.30;100.00;97353.09;5066476;28;20044;-66
2022/06/04 03:46:35;;;;;;;20.30;15.45;;;;;;;13.31;100.00;97359.34;5060592;28;20040;-66
2022/06/04 03:49:01;;;;;;;23.75;15.38;;;;;;;13.42;100.00;97347.41;5065101;28;20572;-66
2022/06/04 03:51:29;;;;;;;19.08;16.15;;;;;;;13.48;100.00;97354.50;5061561;28;20048;-66
2022/06/04 03:53:56;;;;;;;24.33;17.70;;;;;;;13.52;100.00;97352.88;5061205;28;20094;-66
2022/06/04 03:56:24;;;;;;;19.83;17.17;;;;;;;13.53;100.00;97356.41;5065967;28;20044;-66
2022/06/04 03:58:51;;;;;;;22.30;16.70;;;;;;;13.55;100.00;97358.84;5065768;28;20040;-66
2022/06/04 04:01:22;;;;;;;19.50;14.73;;;;;;;13.63;100.00;97361.84;5076346;28;20040;-66
2022/06/04 04:03:49;;;;;;;17.52;14.98;;;;;;;13.82;100.00;97368.66;5071990;28;20510;-66
2022/06/04 04:06:28;;;;;;;17.73;14.77;;;;;;;13.93;99.78;97367.53;5064652;28;20102;-66
2022/06/04 04:08:55;;;;;;;17.23;14.02;;;;;;;14.00;98.85;97359.09;5060565;28;20052;-66
2022/06/04 04:11:25;;;;;;;14.98;13.38;;;;;;;14.10;99.10;97359.09;5062408;28;20041;-66
2022/06/04 04:13:53;;;;;;;16.52;13.75;;;;;;;14.22;98.62;97355.25;5065584;28;20503;-66
2022/06/04 04:16:20;;;;;;;18.77;13.95;;;;;;;14.25;98.20;97338.34;5059514;28;20044;-66
2022/06/04 04:18:47;;;;;;;18.38;13.68;;;;;;;14.30;98.31;97336.44;5056128;28;20048;-66
2022/06/04 04:21:17;;;;;;;17.23;14.57;;;;;;;14.28;97.61;97346.78;5061737;28;20040;-66
2022/06/04 04:23:43;;;;;;;15.32;13.73;;;;;;;14.06;98.88;97352.56;5057029;28;20036;-66
2022/06/04 04:26:12;;;;;;;16.90;13.85;;;;;;;14.03;99.79;97348.47;5061913;28;20048;-66
2022/06/04 04:28:40;;;;;;;17.10;13.95;;;;;;;14.17;99.93;97348.72;5078077;28;20085;-66
2022/06/04 04:31:15;;;;;;;17.33;14.10;;;;;;;14.38;99.55;97340.47;5063636;28;20055;-66
2022/06/04 04:33:42;;;;;;;18.17;14.38;;;;;;;14.55;98.88;97351.06;5064981;28;20284;-66
2022/06/04 04:36:09;;;;;;;15.57;13.98;;;;;;;14.60;98.26;97352.97;5063647;28;20044;-66
2022/06/04 04:38:37;;;;;;;17.10;14.57;;;;;;;14.66;98.24;97338.19;5075365;28;20060;-66
2022/06/04 04:41:12;;;;;;;15.32;13.40;;;;;;;14.86;98.41;97335.69;5063194;28;20051;-66
2022/06/04 04:43:39;;;;;;;13.45;12.05;;;;;;;15.01;97.89;97335.59;5065449;28;20606;-66
2022/06/04 04:46:10;;;;;;;15.35;13.00;;;;;;;15.17;96.64;97335.50;5063599;28;20443;-66
2022/06/04 04:48:37;;;;;;;14.02;12.63;;;;;;;15.32;95.62;97326.38;5063755;28;20040;-66
2022/06/04 04:51:05;;;;;;;14.82;12.02;;;;;;;15.42;95.37;97339.16;5061828;28;20040;-66
2022/06/04 04:53:32;;;;;;;14.40;11.82;;;;;;;15.54;95.45;97341.50;5065644;28;20060;-66
2022/06/04 04:55:58;;;;;;;13.85;11.05;;;;;;;15.68;95.82;97344.41;5069019;28;20051;-66
2022/06/04 04:58:25;;;;;;;14.77;11.80;;;;;;;15.84;95.67;97347.78;5058116;28;20044;-66
2022/06/04 05:00:51;;;;;;;14.15;11.25;;;;;;;16.03;95.01;97347.13;5065651;28;20040;-66
2022/06/04 05:03:18;;;;;;;12.20;10.90;;;;;;;16.20;94.11;97357.59;5062702;28;20427;-66
2022/06/04 05:05:44;;;;;;;12.07;10.68;;;;;;;16.31;93.92;97355.56;5068423;28;20055;-66
2022/06/04 05:08:11;;;;;;;13.18;11.05;;;;;;;16.44;93.82;97371.25;5066349;28;20060;-66
2022/06/04 05:10:39;;;;;;;12.48;11.15;;;;;;;16.48;93.07;97382.44;5061869;28;20709;-66
2022/06/04 05:13:06;;;;;;;11.85;10.63;;;;;;;16.47;92.70;97384.34;5063025;28;20052;-66
2022/06/04 05:15:32;;;;;;;14.15;10.65;;;;;;;16.55;92.73;97387.56;5062925;28;20044;-66
2022/06/04 05:17:59;;;;;;;11.85;10.65;;;;;;;16.52;92.14;97387.00;5062967;28;20054;-66
2022/06/04 05:20:25;;;;;;;12.02;10.05;;;;;;;16.52;92.09;97387.00;5063321;28;20036;-66
2022/06/04 05:22:52;;;;;;;13.93;10.68;;;;;;;16.48;92.45;97391.44;5063692;28;20048;-66
2022/06/04 05:25:18;;;;;;;13.38;11.32;;;;;;;16.41;93.01;97385.53;5065728;28;20048;-66
2022/06/04 05:27:45;;;;;;;12.88;10.73;;;;;;;16.43;92.91;97388.75;5065867;28;20051;-66
2022/06/04 05:30:12;;;;;;;13.52;11.20;;;;;;;16.51;92.60;97384.56;5083205;28;20494;-66
2022/06/04 05:32:38;;;;;;;13.93;11.05;;;;;;;16.62;92.29;97385.28;5064348;28;20045;-66
2022/06/04 05:35:05;;;;;;;11.80;10.45;;;;;;;16.76;91.75;97391.69;5063670;28;20048;-66
2022/06/04 05:37:32;;;;;;;12.93;10.50;;;;;;;16.81;91.86;97398.19;5061295;28;20056;-66
2022/06/04 05:40:04;;;;;;;13.10;10.15;;;;;;;16.80;92.05;97402.03;5060142;28;20045;-66
2022/06/04 05:42:30;;;;;;;12.70;10.55;;;;;;;16.70;92.00;97406.50;5050658;28;20039;-66
2022/06/04 05:44:57;;;;;;;12.30;10.38;;;;;;;16.67;92.26;97409.00;5066048;28;20048;-66
2022/06/04 05:47:23;;;;;;;12.27;10.35;;;;;;;16.62;92.07;97409.91;5065082;28;20086;-66
2022/06/04 05:49:50;;;;;;;14.18;10.23;;;;;;;16.56;92.39;97417.34;5065420;28;20040;-66
2022/06/04 05:52:16;;;;;;;12.15;9.98;;;;;;;16.55;93.01;97425.81;5064602;28;20092;-66
2022/06/04 05:54:43;;;;;;;13.68;10.15;;;;;;;16.59;94.21;97421.41;5065246;28;20093;-66
2022/06/04 05:57:09;;;;;;;14.95;10.43;;;;;;;16.62;94.80;97432.56;5065092;28;20041;-66
2022/06/04 05:59:36;;;;;;;11.35;9.88;;;;;;;16.58;95.88;97453.38;5064051;28;20538;-67
2022/06/04 06:02:03;;;;;;;12.57;11.27;;;;;;;16.49;95.05;97493.38;5062108;28;20051;-66
2022/06/04 06:04:31;;;;;;;12.60;11.30;;;;;;;16.40;95.18;97512.31;5062278;28;20049;-66
2022/06/04 06:06:59;;;;;;;15.40;10.85;;;;;;;16.33;94.74;97520.03;5062909;28;20801;-66
2022/06/04 06:09:26;;;;;;;13.90;11.32;;;;;;;16.32;94.51;97523.84;5061154;28;20044;-66
2022/06/04 06:11:54;;;;;;;13.65;10.75;;;;;;;16.22;96.68;97530.22;5062260;28;20048;-65
2022/06/04 06:14:21;;;;;;;12.75;10.93;;;;;;;16.21;96.93;97536.78;5061622;28;20611;-66
2022/06/04 06:16:49;;;;;;;15.15;10.45;;;;;;;16.08;100.00;97532.78;5060628;28;20056;-66
2022/06/04 06:19:18;;;;;;;15.90;11.20;;;;;;;16.02;100.00;97539.38;5060632;28;20044;-66
2022/06/04 06:21:45;;;;;;;15.15;10.07;;;;;;;16.03;100.00;97541.03;5053085;28;20057;-66
2022/06/04 06:24:12;;;;;;;12.32;9.85;;;;;;;15.98;100.00;97542.69;5060888;28;20048;-70
2022/06/04 06:26:48;;;;;;;12.95;9.10;;;;;;;16.03;100.00;97536.34;5068545;28;20047;-74
2022/06/04 06:29:17;;;;;;;16.52;10.82;;;;;;;16.02;100.00;97526.53;5055674;28;20048;-70
2022/06/04 06:31:44;;;;;;;14.82;10.07;;;;;;;16.07;100.00;97514.78;5061019;28;20040;-68
2022/06/04 06:34:12;;;;;;;13.70;9.98;;;;;;;16.06;100.00;97502.19;5061485;28;20110;-68
2022/06/04 06:36:38;;;;;;;16.17;10.75;;;;;;;16.09;100.00;97493.44;5060750;28;20062;-67
2022/06/04 06:39:05;;;;;;;18.58;12.50;;;;;;;16.17;100.00;97470.16;5062013;28;20082;-69
2022/06/04 06:41:32;;;;;;;21.35;11.88;;;;;;;16.18;100.00;97461.66;5061075;28;20048;-66
2022/06/04 06:43:59;;;;;;;15.25;12.30;;;;;;;16.22;100.00;97465.47;5073666;28;20418;-64
2022/06/04 06:46:31;;;;;;;14.15;10.82;;;;;;;16.34;100.00;97456.09;5061918;28;20622;-74
2022/06/04 06:49:11;;;;;;;19.17;11.90;;;;;;;16.43;100.00;97448.88;5061907;28;20711;-68
2022/06/04 06:51:45;;;;;;;16.23;11.27;;;;;;;16.47;100.00;97439.00;5055382;28;20051;-67
2022/06/04 06:54:13;;;;;;;15.00;10.00;;;;;;;16.59;100.00;97440.53;5060201;28;20072;-68
2022/06/04 06:56:41;;;;;;;14.02;10.27;;;;;;;16.68;100.00;97438.78;5058723;28;20051;-67
2022/06/04 06:59:08;;;;;;;14.40;9.30;;;;;;;16.67;100.00;97460.94;5060076;28;20169;-67
2022/06/04 07:01:36;;;;;;;13.73;9.55;;;;;;;16.62;100.00;97461.84;5060253;28;20051;-69
2022/06/04 07:04:04;;;;;;;15.18;10.07;;;;;;;16.86;100.00;97463.75;5060146;28;20558;-68
2022/06/04 07:06:40;;;;;;;12.00;10.15;;;;;;;16.96;100.00;97474.59;5049682;28;20454;-68
2022/06/04 07:09:11;;;;;;;13.63;10.57;;;;;;;16.89;100.00;97476.84;5060251;28;20101;-68
2022/06/04 07:11:38;;;;;;;12.38;10.65;;;;;;;17.00;100.00;97478.34;5061556;28;20066;-67
2022/06/04 07:14:05;;;;;;;13.90;11.73;;;;;;;17.11;100.00;97487.28;5078060;28;20111;-68
2022/06/04 07:16:31;;;;;;;15.48;11.45;;;;;;;17.39;100.00;97481.19;5056719;28;20048;-69
2022/06/04 07:18:58;;;;;;;18.35;12.20;;;;;;;17.80;100.00;97483.34;5060578;28;20053;-68
2022/06/04 07:21:24;;;;;;;14.52;11.85;;;;;;;17.97;100.00;97475.69;5058122;28;20037;-67
2022/06/04 07:23:51;;;;;;;13.68;11.27;;;;;;;18.18;100.00;97476.22;5055264;28;20737;-69
2022/06/04 07:26:17;;;;;;;16.23;10.63;;;;;;;17.99;97.78;97476.22;5064949;28;20044;-69
2022/06/04 07:28:44;;;;;;;9.57;8.20;;;;;;;18.22;98.20;97480.00;5069124;28;20127;-67
2022/06/04 07:31:12;;;;;;;10.02;8.77;;;;;;;18.30;98.19;97486.72;5060286;28;20051;-67
2022/06/04 07:33:42;;;;;;;11.93;7.90;;;;;;;18.36;96.48;97488.28;5062308;28;20044;-67
2022/06/04 07:36:14;;;;;;;8.68;7.70;;;;;;;18.10;97.90;97482.38;5060177;28;20748;-66
2022/06/04 07:38:40;;;;;;;13.38;9.07;;;;;;;17.96;99.76;97461.22;5062002;28;20408;-67
2022/06/04 07:41:07;;;;;;;10.32;9.23;;;;;;;18.06;100.00;97463.78;5060107;28;20462;-68
2022/06/04 07:43:33;;;;;;;12.45;9.60;;;;;;;18.27;100.00;97455.25;5058111;28;20051;-66
2022/06/04 07:46:00;;;;;;;12.93;9.48;;;;;;;18.32;100.00;97457.09;5058265;28;20060;-66
2022/06/04 07:48:27;;;;;;;12.70;9.27;;;;;;;18.45;100.00;97463.69;5057095;28;20100;-67
2022/06/04 07:50:55;;;;;;;12.18;8.77;;;;;;;18.67;98.26;97463.03;5062051;28;20044;-66
2022/06/04 07:53:21;;;;;;;9.98;8.73;;;;;;;18.82;98.40;97463.84;5060604;28;20048;-66
2022/06/04 07:55:48;;;;;;;11.57;9.55;;;;;;;18.93;98.18;97461.72;5068036;28;20044;-66
2022/06/04 07:58:18;;;;;;;10.48;9.02;;;;;;;19.02;95.59;97467.31;5063926;28;20040;-66
2022/06/04 08:00:44;;;;;;;12.50;8.23;;;;;;;18.96;94.20;97470.16;5064442;28;20109;-66
2022/06/04 08:03:11;;;;;;;9.93;8.40;;;;;;;19.02;94.45;97467.31;5068056;28;20044;-66
2022/06/04 08:05:38;;;;;;;10.77;9.50;;;;;;;19.01;94.70;97466.50;5064981;28;20048;-66
2022/06/04 08:08:09;;;;;;;14.20;9.63;;;;;;;19.04;95.12;97468.63;5064735;28;20044;-66
2022/06/04 08:10:35;;;;;;;11.35;9.80;;;;;;;19.10;96.22;97470.16;5064974;28;20045;-66
2022/06/04 08:13:02;;;;;;;10.48;8.80;;;;;;;19.31;92.68;97475.25;5078392;28;20048;-66
2022/06/04 08:15:29;;;;;;;12.80;9.73;;;;;;;19.55;93.72;97479.69;5063702;28;20044;-66
2022/06/04 08:17:55;;;;;;;15.23;10.13;;;;;;;19.94;93.37;97482.13;5060271;28;20829;-66
2022/06/04 08:20:22;;;;;;;10.73;8.60;;;;;;;20.13;92.35;97480.00;5067413;28;20059;-67
2022/06/04 08:22:49;;;;;;;9.93;8.63;;;;;;;20.20;90.94;97485.06;5055771;28;20029;-67
2022/06/04 08:25:16;;;;;;;9.57;7.90;;;;;;;19.94;87.83;97488.41;5057917;28;20044;-67
2022/06/04 08:27:44;;;;;;;8.35;6.72;;;;;;;20.47;87.54;97493.50;5055250;28;20079;-67
2022/06/04 08:30:12;;;;;;;9.82;8.25;;;;;;;20.85;87.27;97495.81;5058319;28;20574;-67
2022/06/04 08:32:39;;;;;;;9.45;7.00;;;;;;;21.14;86.09;97486.22;5063287;28;20102;-66
2022/06/04 08:35:06;;;;;;;11.75;6.68;;;;;;;21.26;83.34;97488.38;5066642;28;20544;-66
2022/06/04 08:37:33;;;;;;;7.43;6.10;;;;;;;21.52;79.72;97482.09;5068186;28;20459;-66
2022/06/04 08:40:00;;;;;;;8.00;6.00;;;;;;;21.73;80.12;97477.94;5063954;28;20496;-67
2022/06/04 08:42:45;;;;;;;8.18;5.30;;;;;;;21.68;77.32;97484.41;5064251;28;20041;-70
2022/06/04 08:45:13;;;;;;;8.88;6.75;;;;;;;21.42;76.72;97488.72;5048599;28;20075;-66
2022/06/04 08:47:45;;;;;;;7.43;5.40;;;;;;;21.55;78.37;97494.41;5071598;28;20040;-67
2022/06/04 08:50:19;;;;;;;7.38;5.88;;;;;;;21.93;76.95;97487.53;5078360;28;20059;-67
2022/06/04 08:52:55;;;;;;;7.03;5.10;;;;;;;22.11;76.06;97496.56;5058866;28;20041;-66
2022/06/04 08:58:28;;;;;;;8.13;5.43;;;;;;;21.89;78.17;97508.59;5061869;28;20086;-66
2022/06/04 09:01:10;;;;;;;7.55;5.70;;;;;;;21.74;79.75;97510.69;5066131;28;20041;-67
2022/06/04 09:04:03;;;;;;;5.18;3.45;;;;;;;21.73;74.38;97522.00;5056872;28;20040;-67
2022/06/04 09:06:44;;;;;;;5.82;3.55;;;;;;;21.32;73.82;97516.56;5067736;28;20393;-67
2022/06/04 09:09:24;;;;;;;5.75;3.30;;;;;;;21.37;73.27;97515.63;5062466;28;20454;-67
2022/06/04 09:12:14;;;;;;;5.95;4.97;;;;;;;21.17;78.56;97523.31;5070937;28;20054;-67
2022/06/04 09:14:49;;;;;;;5.32;3.72;;;;;;;21.25;77.80;97518.97;5075486;28;20059;-66
2022/06/04 09:17:17;;;;;;;5.05;2.92;;;;;;;20.99;74.15;97538.94;5063792;28;20055;-66
2022/06/04 09:19:50;;;;;;;4.70;2.65;;;;;;;20.99;75.41;97538.94;5063047;28;20048;-67
2022/06/04 09:22:23;;;;;;;5.85;3.70;;;;;;;21.10;78.02;97532.03;5065902;28;20044;-67
2022/06/04 09:24:50;;;;;;;7.03;3.90;;;;;;;21.09;77.03;97543.38;5068765;28;20458;-68
2022/06/04 09:27:50;;;;;;;6.57;4.55;;;;;;;21.35;78.81;97542.66;5062826;28;20056;-68
2022/06/04 09:30:49;;;;;;;6.47;4.45;;;;;;;21.48;76.41;97538.97;5062341;28;20040;-68
2022/06/04 09:33:35;;;;;;;6.20;5.45;;;;;;;21.94;76.32;97556.13;5057112;28;20061;-67
2022/06/04 09:36:02;;;;;;;6.57;5.22;;;;;;;22.01;76.70;97547.34;5055064;28;20099;-71
2022/06/04 09:38:31;;;;;;;7.18;5.45;;;;;;;21.93;76.74;97559.19;5067180;28;20045;-72
2022/06/04 09:41:07;;;;;;;7.43;5.82;;;;;;;21.74;78.36;97562.25;5062410;28;20044;-72
2022/06/04 09:43:33;;;;;;;7.28;5.60;;;;;;;22.05;75.56;97559.38;5066745;28;20032;-68
2022/06/04 09:46:06;;;;;;;8.27;6.70;;;;;;;21.79;77.75;97567.59;5058153;28;20668;-71
2022/06/04 09:48:49;;;;;;;8.27;6.82;;;;;;;21.88;75.96;97564.84;5056408;28;20179;-72
2022/06/04 09:51:23;;;;;;;7.53;6.65;;;;;;;21.90;75.66;97562.56;5061569;28;20403;-71
2022/06/04 09:54:00;;;;;;;8.68;7.63;;;;;;;21.73;77.26;97566.94;5068074;28;20040;-65
2022/06/04 09:56:35;;;;;;;8.73;7.25;;;;;;;21.25;81.21;97576.78;5063958;28;20051;-65
2022/06/04 09:59:18;;;;;;;8.68;7.25;;;;;;;21.23;79.77;97577.09;5053348;28;20048;-69
2022/06/04 10:02:00;;;;;;;8.32;7.18;;;;;;;21.38;76.27;97586.88;5058538;28;20162;-65
2022/06/04 10:04:37;;;;;;;9.75;7.32;;;;;;;21.16;81.20;97591.31;5060685;28;20040;-65
2022/06/04 10:07:09;;;;;;;8.63;7.82;;;;;;;21.15;78.13;97595.22;5058443;28;20044;-65
2022/06/04 10:09:56;;;;;;;9.60;8.60;;;;;;;20.94;80.11;97596.88;5054585;28;20102;-71
2022/06/04 10:15:25;;;;;;;10.45;8.50;;;;;;;21.40;77.29;97600.34;5063403;28;20051;-68
2022/06/04 10:18:05;;;;;;;10.45;8.95;;;;;;;21.16;78.37;97599.59;5061600;28;20048;-66
2022/06/04 10:20:33;;;;;;;12.40;9.18;;;;;;;20.84;79.79;97603.44;5068678;28;20060;-73
2022/06/04 10:22:59;;;;;;;9.88;8.85;;;;;;;20.83;79.47;97610.88;5083149;28;20044;-71
2022/06/04 10:25:38;;;;;;;12.38;9.65;;;;;;;20.88;77.89;97609.97;5061806;28;20052;-72
2022/06/04 10:28:20;;;;;;;10.63;9.55;;;;;;;20.92;78.07;97609.03;5060778;28;20571;-67
2022/06/04 10:30:59;;;;;;;10.93;9.77;;;;;;;20.71;80.11;97599.63;5059760;28;20044;-66
2022/06/04 10:33:44;;;;;;;11.65;9.48;;;;;;;20.74;79.46;97607.25;5061727;28;20043;-65
2022/06/04 10:36:26;;;;;;;12.40;9.27;;;;;;;20.94;78.76;97603.22;5063243;28;20056;-65
2022/06/04 10:39:16;;;;;;;13.10;10.02;;;;;;;20.95;79.14;97599.31;5051887;28;20040;-68
2022/06/04 10:42:01;;;;;;;11.20;9.57;;;;;;;20.96;80.01;97603.69;5057824;28;20045;-66
2022/06/04 10:44:48;;;;;;;11.13;9.27;;;;;;;21.13;76.42;97610.44;5062103;28;20115;-67
2022/06/04 10:47:21;;;;;;;13.25;10.05;;;;;;;20.90;78.57;97605.75;5070393;28;20502;-74
2022/06/04 10:50:12;;;;;;;12.75;9.98;;;;;;;21.09;76.83;97613.00;5062550;28;20546;-73
2022/06/04 10:52:41;;;;;;;11.13;9.50;;;;;;;20.79;78.80;97612.66;5054422;28;20032;-76
2022/06/04 10:55:15;;;;;;;14.23;10.30;;;;;;;20.83;79.18;97626.56;5059050;28;20384;-72
2022/06/04 10:58:19;;;;;;;11.23;10.02;;;;;;;21.06;77.17;97627.41;5061497;28;20051;-70
2022/06/04 11:00:56;;;;;;;10.60;9.38;;;;;;;21.18;78.69;97622.13;5069880;28;20177;-66
2022/06/04 11:04:31;;;;;;;10.43;9.32;;;;;;;21.16;77.02;97621.59;5066742;28;20037;-71
2022/06/04 11:07:22;;;;;;;13.07;8.68;;;;;;;21.36;75.08;97619.44;4976724;28;20772;-70
2022/06/04 11:09:51;;;;;;;12.27;10.95;;;;;;;20.52;78.07;97625.38;5036054;28;20899;-72
2022/06/04 11:12:23;;;;;;;11.93;10.73;;;;;;;20.89;78.64;97626.16;5068863;28;20048;-68
2022/06/04 11:14:57;;;;;;;12.75;11.45;;;;;;;21.00;77.69;97614.88;5045770;28;20512;-70
2022/06/04 11:17:29;;;;;;;13.85;10.23;;;;;;;21.72;73.01;97606.63;5059659;28;20056;-68
2022/06/04 11:20:10;;;;;;;12.38;11.00;;;;;;;22.22;72.33;97610.13;5060919;28;20052;-69
2022/06/04 11:22:40;;;;;;;13.55;11.25;;;;;;;22.59;69.22;97605.13;5063479;28;20048;-69
2022/06/04 11:25:28;;;;;;;12.27;10.85;;;;;;;22.37;70.65;97602.50;5063134;28;20514;-67
2022/06/04 11:28:00;;;;;;;11.00;9.90;;;;;;;22.29;71.08;97602.19;5061422;28;20064;-65
2022/06/04 11:30:36;;;;;;;12.70;10.45;;;;;;;22.50;70.66;97603.47;5058884;28;20052;-66
2022/06/04 11:33:13;;;;;;;12.43;9.93;;;;;;;22.64;67.44;97606.91;5062292;28;20040;-66
2022/06/04 11:35:45;;;;;;;11.77;10.25;;;;;;;22.18;70.30;97606.38;5061854;28;20412;-67
2022/06/04 11:38:29;;;;;;;13.70;11.35;;;;;;;22.17;70.14;97616.63;5067088;28;20076;-66
2022/06/04 11:41:36;;;;;;;12.05;10.85;;;;;;;22.30;70.32;97617.59;5064165;28;20048;-65
2022/06/04 11:44:18;;;;;;;12.27;10.27;;;;;;;22.58;68.69;97620.06;5061383;28;20060;-65
2022/06/04 11:47:11;;;;;;;12.45;11.23;;;;;;;22.03;70.89;97615.94;5058346;28;20130;-66
2022/06/04 11:49:44;;;;;;;14.43;11.13;;;;;;;22.63;67.98;97599.78;5060875;28;20044;-73
2022/06/04 11:52:20;;;;;;;10.23;9.07;;;;;;;23.19;67.60;97604.53;5064592;28;20045;-69
2022/06/04 11:55:04;;;;;;;9.68;8.68;;;;;;;23.63;66.36;97609.09;5073502;28;20036;-70
2022/06/04 11:57:34;;;;;;;11.40;9.88;;;;;;;23.72;66.07;97607.09;5060561;28;20044;-70